Leonie — PHLE — position and weather

sailwx.info

Track history (hours):
 
Tides and Currents Weather Stations Pressure Air Temp Water Temp Dewpoint Dewpoint Depression Visibility Wind Speed Wind Dir Waves Ship Positions

Leonie

Last reported at 2016-Jul-24 07:33 UTC. Time now 2016-Jul-26 21:52 UTC.
Position N 48°58' W 005°37'.

Length 90 m; draft 4.8 m.

Type: Cargo ship. MMSI: 244772000.

Date/timePositionNaut miles runAvg speedWind from/ knotsBaromVisibWave heightAir tempDewpointWater temp
2016-Jul-24 07:33N 48°58' W 005°37'8 8.1
2016-Jul-24 06:33N 49°03' W 005°27'8 8.2
2016-Jul-24 05:33N 49°07' W 005°17'9 8.8
2016-Jul-24 04:33N 49°12' W 005°05'10 9.7
2016-Jul-24 03:32N 49°17' W 004°52'1210.8
2016-Jul-24 02:28N 49°23' W 004°37'1211.4
2016-Jul-24 01:27N 49°28' W 004°21'1111.2
2016-Jul-24 00:26N 49°34' W 004°06'910.4
2016-Jul-23 23:32N 49°39' W 003°54'9 9.5
2016-Jul-23 22:33N 49°44' W 003°41'9 8.6
2016-Jul-23 21:30N 49°48' W 003°29'8 8.3
2016-Jul-23 20:33N 49°52' W 003°18'8 8.4
2016-Jul-23 19:33N 49°56' W 003°07'9 9.2
2016-Jul-23 18:34N 50°01' W 002°55'1110.8
2016-Jul-23 17:33N 50°04' W 002°38'1212.5
2016-Jul-23 16:33N 50°07' W 002°20'1413.3
2016-Jul-23 15:30N 50°11' W 001°59'2412.1
2016-Jul-23 13:33N 50°18' W 001°24'9 9.5
2016-Jul-23 12:33N 50°20' W 001°09'8 7.6
2016-Jul-23 11:33N 50°22' W 000°58'7 6.6
2016-Jul-23 10:33N 50°24' W 000°48'7 6.9
2016-Jul-23 09:33N 50°26' W 000°38'8 8.2
2016-Jul-23 08:33N 50°28' W 000°25'10 9.8
2016-Jul-23 07:33N 50°31' W 000°10'1111.2
2016-Jul-23 06:32N 50°34' E 000°07'2411.7
2016-Jul-23 04:30N 50°42' E 000°42'1010.9
2016-Jul-23 03:33N 50°48' E 000°55'10 9.8
2016-Jul-23 02:33N 50°54' E 001°07'9 8.7
2016-Jul-23 01:33N 50°60' E 001°18'8 8.3
2016-Jul-23 00:33N 51°05' E 001°28'1010.4
2016-Jul-22 23:33N 51°12' E 001°41'1212.4
2016-Jul-22 22:33N 51°23' E 001°51'1313.4
2016-Jul-22 21:33N 51°33' E 002°04'1312.7
2016-Jul-22 20:33N 51°43' E 002°18'1211.6
2016-Jul-22 19:33N 51°51' E 002°30'1210.6
2016-Jul-22 18:25N 52°01' E 002°43'9 9.9
2016-Jul-22 17:32N 52°07' E 002°52'13 9.4
2016-Jul-22 16:12N 52°17' E 003°06'7411.0
2016-Jul-22 09:29N 53°13' E 004°25'1010.5
2016-Jul-22 08:33N 53°22' E 004°32'10 9.7
2016-Jul-22 07:33N 53°29' E 004°42'18 9.1
2016-Jul-22 05:33N 53°35' E 005°11'10 9.5
2016-Jul-22 04:33N 53°38' E 005°26'1110.6
2016-Jul-22 03:33N 53°42' E 005°43'1110.6
2016-Jul-22 02:33N 53°45' E 006°00'1010.2
2016-Jul-22 01:33N 53°48' E 006°17'9 9.4
2016-Jul-22 00:33N 53°51' E 006°32'9 8.9
2016-Jul-21 23:33N 53°52' E 006°47'8 8.1
2016-Jul-21 22:33N 53°54' E 007°00'8 7.8
2016-Jul-21 21:33N 53°56' E 007°13'8 8.4
2016-Jul-21 20:33N 53°59' E 007°27'10 9.9
2016-Jul-21 19:33N 54°02' E 007°43'1111.1
2016-Jul-21 18:34N 54°02' E 008°02'1212.0
2016-Jul-21 17:33N 53°60' E 008°22'1312.8
2016-Jul-21 16:33N 53°54' E 008°41'1110.9
2016-Jul-21 15:33N 53°51' E 008°59'6 6.3
2016-Jul-21 14:33N 53°54' E 009°09'6 5.9
2016-Jul-21 13:34N 53°58' E 009°16'8 7.6
2016-Jul-21 12:33N 54°05' E 009°19'22 7.2
2016-Jul-21 09:32N 54°21' E 009°46'8 8.0
2016-Jul-21 08:33N 54°21' E 009°59'6 5.8
2016-Jul-21 07:33N 54°22' E 010°09'1 1.2
2016-Jul-21 06:33N 54°23' E 010°10'10 9.9
2016-Jul-21 05:33N 54°31' E 010°20'1110.9
2016-Jul-21 04:33N 54°35' E 010°38'1111.3
2016-Jul-21 03:33N 54°36' E 010°57'1211.6
2016-Jul-21 02:33N 54°35' E 011°17'1211.6
2016-Jul-21 01:34N 54°30' E 011°35'1211.7
2016-Jul-21 00:33N 54°28' E 011°55'1010.2
2016-Jul-20 23:33N 54°30' E 012°11'1110.9
2016-Jul-20 22:33N 54°40' E 012°21'1110.7
2016-Jul-20 21:33N 54°46' E 012°37'1111.1
2016-Jul-20 20:33N 54°46' E 012°56'1211.9
2016-Jul-20 19:33N 54°44' E 013°16'1211.6
2016-Jul-20 18:33N 54°39' E 013°35'1111.4
2016-Jul-20 17:33N 54°31' E 013°48'1211.3
2016-Jul-20 16:28N 54°20' E 013°57'1111.5
2016-Jul-20 15:32N 54°10' E 014°06'1111.6
2016-Jul-20 14:33N 54°01' E 014°17'3 2.8
2016-Jul-20 13:30N 53°58' E 014°18'0 0.0
2016-Jul-20 12:33N 53°58' E 014°18'0 0.0
2016-Jul-20 11:33N 53°58' E 014°18'0 0.0
2016-Jul-20 10:33N 53°58' E 014°18'0 0.0
2016-Jul-20 09:33N 53°58' E 014°18'0 0.0
2016-Jul-20 08:33N 53°58' E 014°18'0 0.0
2016-Jul-20 07:33N 53°58' E 014°18'0 0.0
2016-Jul-20 06:33N 53°58' E 014°18'4 3.9
2016-Jul-20 05:33N 53°55' E 014°16'9 8.6
2016-Jul-20 04:34N 53°47' E 014°23'1010.3
2016-Jul-20 03:34N 53°39' E 014°33'10 9.8
2016-Jul-20 02:34N 53°29' E 014°37'5 4.8
2016-Jul-20 01:34N 53°24' E 014°36'0 0.0
2016-Jul-20 00:31N 53°24' E 014°36'0 0.0
2016-Jul-19 23:31N 53°24' E 014°36'0 0.0
2016-Jul-19 22:31N 53°24' E 014°36'0 0.0
2016-Jul-19 21:31N 53°24' E 014°36'0 0.0
2016-Jul-19 20:31N 53°24' E 014°36'0 0.0
2016-Jul-19 19:31N 53°24' E 014°36'0 0.0
2016-Jul-19 18:31N 53°24' E 014°36'0 0.0
2016-Jul-19 17:31N 53°24' E 014°36'0 0.0
2016-Jul-19 16:31N 53°24' E 014°36'0 0.0
2016-Jul-19 15:31N 53°24' E 014°36'0 0.0
2016-Jul-19 14:31N 53°24' E 014°36'0 0.0
2016-Jul-19 13:31N 53°24' E 014°36'0 0.0
2016-Jul-19 12:31N 53°24' E 014°36'0 0.0
2016-Jul-19 11:31N 53°24' E 014°36'0 0.0
2016-Jul-19 10:31N 53°24' E 014°36'0 0.0
2016-Jul-19 09:31N 53°24' E 014°36'0 0.0
2016-Jul-19 08:31N 53°24' E 014°36'0 0.0
2016-Jul-19 07:31N 53°24' E 014°36'0 0.0
2016-Jul-19 04:31N 53°24' E 014°36'0 0.0
2016-Jul-19 03:31N 53°24' E 014°36'0 0.0
2016-Jul-19 02:31N 53°24' E 014°36'0 0.0
2016-Jul-19 01:31N 53°24' E 014°36'0 0.0
2016-Jul-19 00:31N 53°24' E 014°36'0 0.0
2016-Jul-18 23:31N 53°24' E 014°36'0 0.0
2016-Jul-18 22:31N 53°24' E 014°36'2 2.2
2016-Jul-18 21:34N 53°27' E 014°36'1 0.6
2016-Jul-18 20:33N 53°26' E 014°35'0 0.0
2016-Jul-18 19:33N 53°26' E 014°35'0 0.0
2016-Jul-18 18:30N 53°26' E 014°35'0 0.0
2016-Jul-18 17:33N 53°26' E 014°35'0 0.0
2016-Jul-18 16:33N 53°26' E 014°35'0 0.0
2016-Jul-18 15:33N 53°26' E 014°35'0 0.0
2016-Jul-18 14:33N 53°26' E 014°35'0 0.0
2016-Jul-18 13:33N 53°26' E 014°35'0 0.0
2016-Jul-18 12:33N 53°26' E 014°35'0 0.0
2016-Jul-18 11:33N 53°26' E 014°35'0 0.0
2016-Jul-18 10:33N 53°26' E 014°35'0 0.0
2016-Jul-18 09:33N 53°26' E 014°35'0 0.0
2016-Jul-18 08:33N 53°26' E 014°35'0 0.0
2016-Jul-18 07:33N 53°26' E 014°35'0 0.0
2016-Jul-18 06:33N 53°26' E 014°35'0 0.0
2016-Jul-18 05:33N 53°26' E 014°35'0 0.0
2016-Jul-18 04:33N 53°26' E 014°35'0 0.0
2016-Jul-18 03:33N 53°26' E 014°35'0 0.0
2016-Jul-18 02:33N 53°26' E 014°35'0 0.0
2016-Jul-18 01:33N 53°26' E 014°35'0 0.0
2016-Jul-18 00:33N 53°26' E 014°35'0 0.0
2016-Jul-17 23:33N 53°26' E 014°35'0 0.0
2016-Jul-17 22:33N 53°26' E 014°35'0 0.0
2016-Jul-17 21:33N 53°26' E 014°35'0 0.0
2016-Jul-17 20:33N 53°26' E 014°35'0 0.0
2016-Jul-17 19:33N 53°26' E 014°35'0 0.0
2016-Jul-17 18:33N 53°26' E 014°35'0 0.0
2016-Jul-17 17:33N 53°26' E 014°35'0 0.0
2016-Jul-17 16:33N 53°26' E 014°35'0 0.0
2016-Jul-17 15:33N 53°26' E 014°35'0 0.0
2016-Jul-17 14:33N 53°26' E 014°35'0 0.0
2016-Jul-17 13:33N 53°26' E 014°35'0 0.0
2016-Jul-17 12:33N 53°26' E 014°35'0 0.0
2016-Jul-17 11:33N 53°26' E 014°35'0 0.0
2016-Jul-17 10:33N 53°26' E 014°35'0 0.0
2016-Jul-17 09:33N 53°26' E 014°35'0 0.0
2016-Jul-17 08:33N 53°26' E 014°35'0 0.0
2016-Jul-17 07:30N 53°26' E 014°35'0 0.0
2016-Jul-17 06:33N 53°26' E 014°35'0 0.0
2016-Jul-17 04:30N 53°26' E 014°35'0 0.0
2016-Jul-17 03:33N 53°26' E 014°35'0 0.0
2016-Jul-17 02:33N 53°26' E 014°35'0 0.0
2016-Jul-17 01:33N 53°26' E 014°35'0 0.0
2016-Jul-17 00:33N 53°26' E 014°35'0 0.0
2016-Jul-16 23:33N 53°26' E 014°35'0 0.0
2016-Jul-16 22:33N 53°26' E 014°35'0 0.0
2016-Jul-16 21:33N 53°26' E 014°35'0 0.0
2016-Jul-16 20:33N 53°26' E 014°35'0 0.0
2016-Jul-16 19:33N 53°26' E 014°35'0 0.0
2016-Jul-16 18:33N 53°26' E 014°35'0 0.0
2016-Jul-16 17:33N 53°26' E 014°35'0 0.0
2016-Jul-16 16:33N 53°26' E 014°35'0 0.0
2016-Jul-16 15:33N 53°26' E 014°35'0 0.0
2016-Jul-16 14:33N 53°26' E 014°35'0 0.0
2016-Jul-16 13:33N 53°26' E 014°35'0 0.0
2016-Jul-16 12:33N 53°26' E 014°35'0 0.0
2016-Jul-16 11:33N 53°26' E 014°35'0 0.0
2016-Jul-16 10:33N 53°26' E 014°35'0 0.0
2016-Jul-16 09:33N 53°26' E 014°35'0 0.0
2016-Jul-16 08:33N 53°26' E 014°35'0 0.0
2016-Jul-16 07:33N 53°26' E 014°35'0 0.0
2016-Jul-16 06:33N 53°26' E 014°35'0 0.0
2016-Jul-16 04:33N 53°26' E 014°35'0 0.0
2016-Jul-16 03:33N 53°26' E 014°35'0 0.0
2016-Jul-16 02:33N 53°26' E 014°35'0 0.0
2016-Jul-16 01:33N 53°26' E 014°35'0 0.0
2016-Jul-16 00:33N 53°26' E 014°35'0 0.0
2016-Jul-15 23:33N 53°26' E 014°35'0 0.0
2016-Jul-15 22:33N 53°26' E 014°35'0 0.0
2016-Jul-15 21:33N 53°26' E 014°35'0 0.0
2016-Jul-15 20:33N 53°26' E 014°35'0 0.0
2016-Jul-15 19:33N 53°26' E 014°35'0 0.0
2016-Jul-15 18:30N 53°26' E 014°35'0 0.0
2016-Jul-15 17:33N 53°26' E 014°35'0 0.0
2016-Jul-15 16:33N 53°26' E 014°35'0 0.0
2016-Jul-15 15:33N 53°26' E 014°35'0 0.0
2016-Jul-15 14:33N 53°26' E 014°35'0 0.0
2016-Jul-15 13:30N 53°26' E 014°35'0 0.0
2016-Jul-15 12:33N 53°26' E 014°35'0 0.0
2016-Jul-15 11:33N 53°26' E 014°35'0 0.0
2016-Jul-15 10:33N 53°26' E 014°35'0 0.0
2016-Jul-15 09:33N 53°26' E 014°35'0 0.0
2016-Jul-15 08:33N 53°26' E 014°35'0 0.0
2016-Jul-15 07:33N 53°26' E 014°35'0 0.0
2016-Jul-15 06:33N 53°26' E 014°35'0 0.0
2016-Jul-15 05:33N 53°26' E 014°35'0 0.0
2016-Jul-15 04:33N 53°26' E 014°35'0 0.0
2016-Jul-15 03:33N 53°26' E 014°35'0 0.0
2016-Jul-15 02:33N 53°26' E 014°35'0 0.0
2016-Jul-15 01:33N 53°26' E 014°35'0 0.0
2016-Jul-15 00:33N 53°26' E 014°35'0 0.0
2016-Jul-14 23:33N 53°26' E 014°35'0 0.0
2016-Jul-14 22:33N 53°26' E 014°35'0 0.0
2016-Jul-14 21:33N 53°26' E 014°35'0 0.0
2016-Jul-14 20:30N 53°26' E 014°35'0 0.0
2016-Jul-14 19:33N 53°26' E 014°35'0 0.0
2016-Jul-14 18:33N 53°26' E 014°35'0 0.0
2016-Jul-14 17:33N 53°26' E 014°35'0 0.0
2016-Jul-14 16:33N 53°26' E 014°35'0 0.0
2016-Jul-14 15:33N 53°26' E 014°35'0 0.0
2016-Jul-14 14:33N 53°26' E 014°35'0 0.0
2016-Jul-14 13:33N 53°26' E 014°35'0 0.0
2016-Jul-14 12:27N 53°26' E 014°35'0 0.0
2016-Jul-14 11:33N 53°26' E 014°35'5 4.7
2016-Jul-14 10:33N 53°30' E 014°38'1010.1
2016-Jul-14 09:33N 53°40' E 014°32'1111.1
2016-Jul-14 08:33N 53°49' E 014°20'  
Track history (hours):
 
Tides and Currents Weather Stations Pressure Air Temp Water Temp Dewpoint Dewpoint Depression Visibility Wind Speed Wind Dir Waves Ship Positions

Leonie

Last reported at 2016-Jul-24 07:33 UTC. Time now 2016-Jul-26 21:52 UTC.
Position N 48°58' W 005°37'.

Length 90 m; draft 4.8 m.

Type: Cargo ship. MMSI: 244772000.

Date/timePositionNaut miles runAvg speedWind from/ knotsBaromVisibWave heightAir tempDewpointWater temp
2016-Jul-24 07:33N 48°58' W 005°37'8 8.1
2016-Jul-24 06:33N 49°03' W 005°27'8 8.2
2016-Jul-24 05:33N 49°07' W 005°17'9 8.8
2016-Jul-24 04:33N 49°12' W 005°05'10 9.7
2016-Jul-24 03:32N 49°17' W 004°52'1210.8
2016-Jul-24 02:28N 49°23' W 004°37'1211.4
2016-Jul-24 01:27N 49°28' W 004°21'1111.2
2016-Jul-24 00:26N 49°34' W 004°06'910.4
2016-Jul-23 23:32N 49°39' W 003°54'9 9.5
2016-Jul-23 22:33N 49°44' W 003°41'9 8.6
2016-Jul-23 21:30N 49°48' W 003°29'8 8.3
2016-Jul-23 20:33N 49°52' W 003°18'8 8.4
2016-Jul-23 19:33N 49°56' W 003°07'9 9.2
2016-Jul-23 18:34N 50°01' W 002°55'1110.8
2016-Jul-23 17:33N 50°04' W 002°38'1212.5
2016-Jul-23 16:33N 50°07' W 002°20'1413.3
2016-Jul-23 15:30N 50°11' W 001°59'2412.1
2016-Jul-23 13:33N 50°18' W 001°24'9 9.5
2016-Jul-23 12:33N 50°20' W 001°09'8 7.6
2016-Jul-23 11:33N 50°22' W 000°58'7 6.6
2016-Jul-23 10:33N 50°24' W 000°48'7 6.9
2016-Jul-23 09:33N 50°26' W 000°38'8 8.2
2016-Jul-23 08:33N 50°28' W 000°25'10 9.8
2016-Jul-23 07:33N 50°31' W 000°10'1111.2
2016-Jul-23 06:32N 50°34' E 000°07'2411.7
2016-Jul-23 04:30N 50°42' E 000°42'1010.9
2016-Jul-23 03:33N 50°48' E 000°55'10 9.8
2016-Jul-23 02:33N 50°54' E 001°07'9 8.7
2016-Jul-23 01:33N 50°60' E 001°18'8 8.3
2016-Jul-23 00:33N 51°05' E 001°28'1010.4
2016-Jul-22 23:33N 51°12' E 001°41'1212.4
2016-Jul-22 22:33N 51°23' E 001°51'1313.4
2016-Jul-22 21:33N 51°33' E 002°04'1312.7
2016-Jul-22 20:33N 51°43' E 002°18'1211.6
2016-Jul-22 19:33N 51°51' E 002°30'1210.6
2016-Jul-22 18:25N 52°01' E 002°43'9 9.9
2016-Jul-22 17:32N 52°07' E 002°52'13 9.4
2016-Jul-22 16:12N 52°17' E 003°06'7411.0
2016-Jul-22 09:29N 53°13' E 004°25'1010.5
2016-Jul-22 08:33N 53°22' E 004°32'10 9.7
2016-Jul-22 07:33N 53°29' E 004°42'18 9.1
2016-Jul-22 05:33N 53°35' E 005°11'10 9.5
2016-Jul-22 04:33N 53°38' E 005°26'1110.6
2016-Jul-22 03:33N 53°42' E 005°43'1110.6
2016-Jul-22 02:33N 53°45' E 006°00'1010.2
2016-Jul-22 01:33N 53°48' E 006°17'9 9.4
2016-Jul-22 00:33N 53°51' E 006°32'9 8.9
2016-Jul-21 23:33N 53°52' E 006°47'8 8.1
2016-Jul-21 22:33N 53°54' E 007°00'8 7.8
2016-Jul-21 21:33N 53°56' E 007°13'8 8.4
2016-Jul-21 20:33N 53°59' E 007°27'10 9.9
2016-Jul-21 19:33N 54°02' E 007°43'1111.1
2016-Jul-21 18:34N 54°02' E 008°02'1212.0
2016-Jul-21 17:33N 53°60' E 008°22'1312.8
2016-Jul-21 16:33N 53°54' E 008°41'1110.9
2016-Jul-21 15:33N 53°51' E 008°59'6 6.3
2016-Jul-21 14:33N 53°54' E 009°09'6 5.9
2016-Jul-21 13:34N 53°58' E 009°16'8 7.6
2016-Jul-21 12:33N 54°05' E 009°19'22 7.2
2016-Jul-21 09:32N 54°21' E 009°46'8 8.0
2016-Jul-21 08:33N 54°21' E 009°59'6 5.8
2016-Jul-21 07:33N 54°22' E 010°09'1 1.2
2016-Jul-21 06:33N 54°23' E 010°10'10 9.9
2016-Jul-21 05:33N 54°31' E 010°20'1110.9
2016-Jul-21 04:33N 54°35' E 010°38'1111.3
2016-Jul-21 03:33N 54°36' E 010°57'1211.6
2016-Jul-21 02:33N 54°35' E 011°17'1211.6
2016-Jul-21 01:34N 54°30' E 011°35'1211.7
2016-Jul-21 00:33N 54°28' E 011°55'1010.2
2016-Jul-20 23:33N 54°30' E 012°11'1110.9
2016-Jul-20 22:33N 54°40' E 012°21'1110.7
2016-Jul-20 21:33N 54°46' E 012°37'1111.1
2016-Jul-20 20:33N 54°46' E 012°56'1211.9
2016-Jul-20 19:33N 54°44' E 013°16'1211.6
2016-Jul-20 18:33N 54°39' E 013°35'1111.4
2016-Jul-20 17:33N 54°31' E 013°48'1211.3
2016-Jul-20 16:28N 54°20' E 013°57'1111.5
2016-Jul-20 15:32N 54°10' E 014°06'1111.6
2016-Jul-20 14:33N 54°01' E 014°17'3 2.8
2016-Jul-20 13:30N 53°58' E 014°18'0 0.0
2016-Jul-20 12:33N 53°58' E 014°18'0 0.0
2016-Jul-20 11:33N 53°58' E 014°18'0 0.0
2016-Jul-20 10:33N 53°58' E 014°18'0 0.0
2016-Jul-20 09:33N 53°58' E 014°18'0 0.0
2016-Jul-20 08:33N 53°58' E 014°18'0 0.0
2016-Jul-20 07:33N 53°58' E 014°18'0 0.0
2016-Jul-20 06:33N 53°58' E 014°18'4 3.9
2016-Jul-20 05:33N 53°55' E 014°16'9 8.6
2016-Jul-20 04:34N 53°47' E 014°23'1010.3
2016-Jul-20 03:34N 53°39' E 014°33'10 9.8
2016-Jul-20 02:34N 53°29' E 014°37'5 4.8
2016-Jul-20 01:34N 53°24' E 014°36'0 0.0
2016-Jul-20 00:31N 53°24' E 014°36'0 0.0
2016-Jul-19 23:31N 53°24' E 014°36'0 0.0
2016-Jul-19 22:31N 53°24' E 014°36'0 0.0
2016-Jul-19 21:31N 53°24' E 014°36'0 0.0
2016-Jul-19 20:31N 53°24' E 014°36'0 0.0
2016-Jul-19 19:31N 53°24' E 014°36'0 0.0
2016-Jul-19 18:31N 53°24' E 014°36'0 0.0
2016-Jul-19 17:31N 53°24' E 014°36'0 0.0
2016-Jul-19 16:31N 53°24' E 014°36'0 0.0
2016-Jul-19 15:31N 53°24' E 014°36'0 0.0
2016-Jul-19 14:31N 53°24' E 014°36'0 0.0
2016-Jul-19 13:31N 53°24' E 014°36'0 0.0
2016-Jul-19 12:31N 53°24' E 014°36'0 0.0
2016-Jul-19 11:31N 53°24' E 014°36'0 0.0
2016-Jul-19 10:31N 53°24' E 014°36'0 0.0
2016-Jul-19 09:31N 53°24' E 014°36'0 0.0
2016-Jul-19 08:31N 53°24' E 014°36'0 0.0
2016-Jul-19 07:31N 53°24' E 014°36'0 0.0
2016-Jul-19 04:31N 53°24' E 014°36'0 0.0
2016-Jul-19 03:31N 53°24' E 014°36'0 0.0
2016-Jul-19 02:31N 53°24' E 014°36'0 0.0
2016-Jul-19 01:31N 53°24' E 014°36'0 0.0
2016-Jul-19 00:31N 53°24' E 014°36'0 0.0
2016-Jul-18 23:31N 53°24' E 014°36'0 0.0
2016-Jul-18 22:31N 53°24' E 014°36'2 2.2
2016-Jul-18 21:34N 53°27' E 014°36'1 0.6
2016-Jul-18 20:33N 53°26' E 014°35'0 0.0
2016-Jul-18 19:33N 53°26' E 014°35'0 0.0
2016-Jul-18 18:30N 53°26' E 014°35'0 0.0
2016-Jul-18 17:33N 53°26' E 014°35'0 0.0
2016-Jul-18 16:33N 53°26' E 014°35'0 0.0
2016-Jul-18 15:33N 53°26' E 014°35'0 0.0
2016-Jul-18 14:33N 53°26' E 014°35'0 0.0
2016-Jul-18 13:33N 53°26' E 014°35'0 0.0
2016-Jul-18 12:33N 53°26' E 014°35'0 0.0
2016-Jul-18 11:33N 53°26' E 014°35'0 0.0
2016-Jul-18 10:33N 53°26' E 014°35'0 0.0
2016-Jul-18 09:33N 53°26' E 014°35'0 0.0
2016-Jul-18 08:33N 53°26' E 014°35'0 0.0
2016-Jul-18 07:33N 53°26' E 014°35'0 0.0
2016-Jul-18 06:33N 53°26' E 014°35'0 0.0
2016-Jul-18 05:33N 53°26' E 014°35'0 0.0
2016-Jul-18 04:33N 53°26' E 014°35'0 0.0
2016-Jul-18 03:33N 53°26' E 014°35'0 0.0
2016-Jul-18 02:33N 53°26' E 014°35'0 0.0
2016-Jul-18 01:33N 53°26' E 014°35'0 0.0
2016-Jul-18 00:33N 53°26' E 014°35'0 0.0
2016-Jul-17 23:33N 53°26' E 014°35'0 0.0
2016-Jul-17 22:33N 53°26' E 014°35'0 0.0
2016-Jul-17 21:33N 53°26' E 014°35'0 0.0
2016-Jul-17 20:33N 53°26' E 014°35'0 0.0
2016-Jul-17 19:33N 53°26' E 014°35'0 0.0
2016-Jul-17 18:33N 53°26' E 014°35'0 0.0
2016-Jul-17 17:33N 53°26' E 014°35'0 0.0
2016-Jul-17 16:33N 53°26' E 014°35'0 0.0
2016-Jul-17 15:33N 53°26' E 014°35'0 0.0
2016-Jul-17 14:33N 53°26' E 014°35'0 0.0
2016-Jul-17 13:33N 53°26' E 014°35'0 0.0
2016-Jul-17 12:33N 53°26' E 014°35'0 0.0
2016-Jul-17 11:33N 53°26' E 014°35'0 0.0
2016-Jul-17 10:33N 53°26' E 014°35'0 0.0
2016-Jul-17 09:33N 53°26' E 014°35'0 0.0
2016-Jul-17 08:33N 53°26' E 014°35'0 0.0
2016-Jul-17 07:30N 53°26' E 014°35'0 0.0
2016-Jul-17 06:33N 53°26' E 014°35'0 0.0
2016-Jul-17 04:30N 53°26' E 014°35'0 0.0
2016-Jul-17 03:33N 53°26' E 014°35'0 0.0
2016-Jul-17 02:33N 53°26' E 014°35'0 0.0
2016-Jul-17 01:33N 53°26' E 014°35'0 0.0
2016-Jul-17 00:33N 53°26' E 014°35'0 0.0
2016-Jul-16 23:33N 53°26' E 014°35'0 0.0
2016-Jul-16 22:33N 53°26' E 014°35'0 0.0
2016-Jul-16 21:33N 53°26' E 014°35'0 0.0
2016-Jul-16 20:33N 53°26' E 014°35'0 0.0
2016-Jul-16 19:33N 53°26' E 014°35'0 0.0
2016-Jul-16 18:33N 53°26' E 014°35'0 0.0
2016-Jul-16 17:33N 53°26' E 014°35'0 0.0
2016-Jul-16 16:33N 53°26' E 014°35'0 0.0
2016-Jul-16 15:33N 53°26' E 014°35'0 0.0
2016-Jul-16 14:33N 53°26' E 014°35'0 0.0
2016-Jul-16 13:33N 53°26' E 014°35'0 0.0
2016-Jul-16 12:33N 53°26' E 014°35'0 0.0
2016-Jul-16 11:33N 53°26' E 014°35'0 0.0
2016-Jul-16 10:33N 53°26' E 014°35'0 0.0
2016-Jul-16 09:33N 53°26' E 014°35'0 0.0
2016-Jul-16 08:33N 53°26' E 014°35'0 0.0
2016-Jul-16 07:33N 53°26' E 014°35'0 0.0
2016-Jul-16 06:33N 53°26' E 014°35'0 0.0
2016-Jul-16 04:33N 53°26' E 014°35'0 0.0
2016-Jul-16 03:33N 53°26' E 014°35'0 0.0
2016-Jul-16 02:33N 53°26' E 014°35'0 0.0
2016-Jul-16 01:33N 53°26' E 014°35'0 0.0
2016-Jul-16 00:33N 53°26' E 014°35'0 0.0
2016-Jul-15 23:33N 53°26' E 014°35'0 0.0
2016-Jul-15 22:33N 53°26' E 014°35'0 0.0
2016-Jul-15 21:33N 53°26' E 014°35'0 0.0
2016-Jul-15 20:33N 53°26' E 014°35'0 0.0
2016-Jul-15 19:33N 53°26' E 014°35'0 0.0
2016-Jul-15 18:30N 53°26' E 014°35'0 0.0
2016-Jul-15 17:33N 53°26' E 014°35'0 0.0
2016-Jul-15 16:33N 53°26' E 014°35'0 0.0
2016-Jul-15 15:33N 53°26' E 014°35'0 0.0
2016-Jul-15 14:33N 53°26' E 014°35'0 0.0
2016-Jul-15 13:30N 53°26' E 014°35'0 0.0
2016-Jul-15 12:33N 53°26' E 014°35'0 0.0
2016-Jul-15 11:33N 53°26' E 014°35'0 0.0
2016-Jul-15 10:33N 53°26' E 014°35'0 0.0
2016-Jul-15 09:33N 53°26' E 014°35'0 0.0
2016-Jul-15 08:33N 53°26' E 014°35'0 0.0
2016-Jul-15 07:33N 53°26' E 014°35'0 0.0
2016-Jul-15 06:33N 53°26' E 014°35'0 0.0
2016-Jul-15 05:33N 53°26' E 014°35'0 0.0
2016-Jul-15 04:33N 53°26' E 014°35'0 0.0
2016-Jul-15 03:33N 53°26' E 014°35'0 0.0
2016-Jul-15 02:33N 53°26' E 014°35'0 0.0
2016-Jul-15 01:33N 53°26' E 014°35'0 0.0
2016-Jul-15 00:33N 53°26' E 014°35'0 0.0
2016-Jul-14 23:33N 53°26' E 014°35'0 0.0
2016-Jul-14 22:33N 53°26' E 014°35'0 0.0
2016-Jul-14 21:33N 53°26' E 014°35'0 0.0
2016-Jul-14 20:30N 53°26' E 014°35'0 0.0
2016-Jul-14 19:33N 53°26' E 014°35'0 0.0
2016-Jul-14 18:33N 53°26' E 014°35'0 0.0
2016-Jul-14 17:33N 53°26' E 014°35'0 0.0
2016-Jul-14 16:33N 53°26' E 014°35'0 0.0
2016-Jul-14 15:33N 53°26' E 014°35'0 0.0
2016-Jul-14 14:33N 53°26' E 014°35'0 0.0
2016-Jul-14 13:33N 53°26' E 014°35'0 0.0
2016-Jul-14 12:27N 53°26' E 014°35'0 0.0
2016-Jul-14 11:33N 53°26' E 014°35'5 4.7
2016-Jul-14 10:33N 53°30' E 014°38'1010.1
2016-Jul-14 09:33N 53°40' E 014°32'1111.1
2016-Jul-14 08:33N 53°49' E 014°20'  

Dump ship's entire track history